Hall Beach Airport
CYUX : now visible

Airfield :











YOU CAN JOIN US ON...

 
LOGIN :

Register | Disclaimer

   EN    FR    IT 

 









Legend :    VFR   Marginal VFR   IFR   Intensive IFR   Very Intensive IFR
Visi :
Ceiling :
>= 8 km
>= 3000ft
5 to 8 km
1000 to 3000 ft
1500m to 5 km
500 to 1000 ft
800 to 1500m
200 to 500 ft
< 800m
< 200 ft
Symbols :   Thunderstorms  Fog  Heavy snow  Heavy precipitations  Wind > 20 kt






- Airport Elevation : 27 ft
- IATA code : YUX


CYUX - Hall Beach

CURRENT METAR :
  • 060600Z AUTO 31011KT 9SM CLR M33/M37 A2971 RMK SLP063

EXPIRED METARs :
  • 060500Z AUTO 30013KT 9SM CLR M33/M36 A2970 RMK SLP060
  • 060400Z AUTO 31009KT 9SM CLR M33/M36 A2969 RMK SLP058

TAF TAF CYUX
Valid from the 06 at 01:00 until the 06 at 13:00 UTC


060038Z 0601/0613 31012KT P6SM SKC
TEMPO 0601/0613 5SM IC BR RMK NXT FCST BY 060700Z



MET'MAP, your aeronautical weather chart ! - Copyright ORBIFLY December 2007 - Disclaimer

ORBIFLY MET'MAP TEAM :

Programming & Development : Alexandra Zaïnal
Concept & original design : Baudouin d'Aumeries
Assistance for programming : Marc-Olivier Méhu
Technical & hardware support : Manuel Goepfert

Contact : metmap@orbifly.com




SOURCES & CREDITS :

   NOAA       Earth
Advisory